Main page
METAR-TAF:

METAR-TAF

Airports :

Copenhagen Airport

Copenhagen, Denmark

latitude: 55-37N, longitude: 012-39E, elevation: 5 m

Current weather observation

The report was made 38 minutes ago, at 06:20 UTC
Wind 4 kt from the Northeast
Temperature 5°C
Humidity 65%
Pressure 1031 hPa
Visibility 10 km or more
no clouds below 1500 m and no cumulonimbus

METAR: EKCH 150620Z 05004KT CAVOK 05/M01 Q1031 NOSIG

Time: 08:58 (06:58 UTC)

Forecast

The report was made 1 hour and 56 minutes ago, at 05:02 UTC
Forecast valid from 15 at 06 UTC to 16 at 06 UTC
Wind 10 kt from the North/Northeast
Visibility 10 km or more
no clouds below 1500 m and no cumulonimbus
Temporary
from 15 at 09 UTC to 15 at 16 UTC
Scattered clouds at a height of 3000 ft, Towering cumulus.

TAF: EKCH 150502Z 1506/1606 02010KT CAVOK TEMPO 1509/1516 SCT030TCU

Weather observations and forecasts of more than 4000 airports (METAR and TAF reports).

The available stations are represented by yellow and red dots on the map.

Hover mouse over dot to see the name of the station.

Then click to see weather observations and forecasts.

To change the map : click on the green buttons with a black cross to zoom in, on the green button with a dash to zoom out, or on the green arrows for adjacent maps.


METAR-TAF: